sensor_id;sensor_type;location;lat;lon;timestamp;temperature;humidity
32650;DHT22;19055;51.064;3.712;2022-08-21T00:02:02;19.00;80.30
32650;DHT22;19055;51.064;3.712;2022-08-21T00:04:29;19.00;80.40
32650;DHT22;19055;51.064;3.712;2022-08-21T00:06:54;19.00;80.70
32650;DHT22;19055;51.064;3.712;2022-08-21T00:09:20;19.00;80.90
32650;DHT22;19055;51.064;3.712;2022-08-21T00:11:47;18.90;81.10
32650;DHT22;19055;51.064;3.712;2022-08-21T00:14:14;18.90;81.20
32650;DHT22;19055;51.064;3.712;2022-08-21T00:16:41;18.90;81.40
32650;DHT22;19055;51.064;3.712;2022-08-21T00:19:07;18.90;81.60
32650;DHT22;19055;51.064;3.712;2022-08-21T00:21:34;18.90;82.00
32650;DHT22;19055;51.064;3.712;2022-08-21T00:24:00;18.90;82.20
32650;DHT22;19055;51.064;3.712;2022-08-21T00:26:26;18.90;82.50
32650;DHT22;19055;51.064;3.712;2022-08-21T00:28:52;18.80;82.60
32650;DHT22;19055;51.064;3.712;2022-08-21T00:31:19;18.80;82.70
32650;DHT22;19055;51.064;3.712;2022-08-21T00:33:45;18.80;83.50
32650;DHT22;19055;51.064;3.712;2022-08-21T00:36:12;18.80;83.00
32650;DHT22;19055;51.064;3.712;2022-08-21T00:38:38;18.80;83.20
32650;DHT22;19055;51.064;3.712;2022-08-21T00:41:07;18.80;83.30
32650;DHT22;19055;51.064;3.712;2022-08-21T00:43:36;18.80;83.50
32650;DHT22;19055;51.064;3.712;2022-08-21T00:46:03;18.80;83.60
32650;DHT22;19055;51.064;3.712;2022-08-21T00:48:31;18.70;83.80
32650;DHT22;19055;51.064;3.712;2022-08-21T00:51:03;18.70;84.10
32650;DHT22;19055;51.064;3.712;2022-08-21T00:53:30;18.70;84.40
32650;DHT22;19055;51.064;3.712;2022-08-21T00:55:57;18.70;84.80
32650;DHT22;19055;51.064;3.712;2022-08-21T00:58:26;18.70;84.90
32650;DHT22;19055;51.064;3.712;2022-08-21T01:00:53;18.70;84.90
32650;DHT22;19055;51.064;3.712;2022-08-21T01:03:21;18.70;85.00
32650;DHT22;19055;51.064;3.712;2022-08-21T01:05:48;18.60;85.30
32650;DHT22;19055;51.064;3.712;2022-08-21T01:08:16;18.60;85.70
32650;DHT22;19055;51.064;3.712;2022-08-21T01:10:43;18.60;85.90
32650;DHT22;19055;51.064;3.712;2022-08-21T01:13:10;18.60;86.30
32650;DHT22;19055;51.064;3.712;2022-08-21T01:15:40;18.50;86.70
32650;DHT22;19055;51.064;3.712;2022-08-21T01:18:10;18.60;86.90
32650;DHT22;19055;51.064;3.712;2022-08-21T01:20:40;18.50;87.10
32650;DHT22;19055;51.064;3.712;2022-08-21T01:23:07;18.50;87.40
32650;DHT22;19055;51.064;3.712;2022-08-21T01:25:33;18.50;87.70
32650;DHT22;19055;51.064;3.712;2022-08-21T01:28:11;18.50;87.70
32650;DHT22;19055;51.064;3.712;2022-08-21T01:30:39;18.50;88.20
32650;DHT22;19055;51.064;3.712;2022-08-21T01:33:05;18.50;88.60
32650;DHT22;19055;51.064;3.712;2022-08-21T01:35:31;18.50;89.00
32650;DHT22;19055;51.064;3.712;2022-08-21T01:37:58;18.50;89.30
32650;DHT22;19055;51.064;3.712;2022-08-21T01:40:24;18.50;89.60
32650;DHT22;19055;51.064;3.712;2022-08-21T01:42:50;18.40;89.90
32650;DHT22;19055;51.064;3.712;2022-08-21T01:45:16;18.40;90.10
32650;DHT22;19055;51.064;3.712;2022-08-21T01:47:43;18.40;90.30
32650;DHT22;19055;51.064;3.712;2022-08-21T01:50:13;18.30;90.40
32650;DHT22;19055;51.064;3.712;2022-08-21T01:52:39;18.40;90.70
32650;DHT22;19055;51.064;3.712;2022-08-21T01:55:07;18.40;90.70
32650;DHT22;19055;51.064;3.712;2022-08-21T01:57:33;18.30;90.80
32650;DHT22;19055;51.064;3.712;2022-08-21T02:00:00;18.20;91.10
32650;DHT22;19055;51.064;3.712;2022-08-21T02:02:25;18.20;91.30
32650;DHT22;19055;51.064;3.712;2022-08-21T02:04:51;18.20;91.60
32650;DHT22;19055;51.064;3.712;2022-08-21T02:07:17;18.20;91.70
32650;DHT22;19055;51.064;3.712;2022-08-21T02:09:43;18.20;91.80
32650;DHT22;19055;51.064;3.712;2022-08-21T02:12:10;18.20;92.10
32650;DHT22;19055;51.064;3.712;2022-08-21T02:14:36;18.20;92.20
32650;DHT22;19055;51.064;3.712;2022-08-21T02:17:03;18.20;92.30
32650;DHT22;19055;51.064;3.712;2022-08-21T02:19:29;18.10;92.50
32650;DHT22;19055;51.064;3.712;2022-08-21T02:21:55;18.10;92.60
32650;DHT22;19055;51.064;3.712;2022-08-21T02:24:21;18.10;92.80
32650;DHT22;19055;51.064;3.712;2022-08-21T02:26:46;18.10;93.00
32650;DHT22;19055;51.064;3.712;2022-08-21T02:29:12;18.00;93.00
32650;DHT22;19055;51.064;3.712;2022-08-21T02:31:39;18.00;93.20
32650;DHT22;19055;51.064;3.712;2022-08-21T02:34:04;18.00;93.50
32650;DHT22;19055;51.064;3.712;2022-08-21T02:36:31;18.00;93.70
32650;DHT22;19055;51.064;3.712;2022-08-21T02:38:57;18.00;93.80
32650;DHT22;19055;51.064;3.712;2022-08-21T02:41:23;17.90;94.00
32650;DHT22;19055;51.064;3.712;2022-08-21T02:43:49;18.00;94.20
32650;DHT22;19055;51.064;3.712;2022-08-21T02:46:18;17.90;94.40
32650;DHT22;19055;51.064;3.712;2022-08-21T02:48:45;17.90;94.50
32650;DHT22;19055;51.064;3.712;2022-08-21T02:51:14;17.90;94.70
32650;DHT22;19055;51.064;3.712;2022-08-21T02:53:41;18.00;94.90
32650;DHT22;19055;51.064;3.712;2022-08-21T02:56:10;18.00;95.00
32650;DHT22;19055;51.064;3.712;2022-08-21T02:58:39;18.00;95.10
32650;DHT22;19055;51.064;3.712;2022-08-21T03:01:07;17.90;95.20
32650;DHT22;19055;51.064;3.712;2022-08-21T03:03:36;17.90;95.40
32650;DHT22;19055;51.064;3.712;2022-08-21T03:06:04;17.90;95.50
32650;DHT22;19055;51.064;3.712;2022-08-21T03:08:30;17.90;95.70
32650;DHT22;19055;51.064;3.712;2022-08-21T03:10:56;17.80;96.00
32650;DHT22;19055;51.064;3.712;2022-08-21T03:13:22;17.80;95.80
32650;DHT22;19055;51.064;3.712;2022-08-21T03:15:49;17.70;96.00
32650;DHT22;19055;51.064;3.712;2022-08-21T03:18:15;17.70;96.20
32650;DHT22;19055;51.064;3.712;2022-08-21T03:20:42;17.70;96.30
32650;DHT22;19055;51.064;3.712;2022-08-21T03:23:08;17.70;96.40
32650;DHT22;19055;51.064;3.712;2022-08-21T03:25:35;17.70;96.40
32650;DHT22;19055;51.064;3.712;2022-08-21T03:28:03;17.70;96.60
32650;DHT22;19055;51.064;3.712;2022-08-21T03:30:29;17.70;96.70
32650;DHT22;19055;51.064;3.712;2022-08-21T03:32:57;17.70;96.80
32650;DHT22;19055;51.064;3.712;2022-08-21T03:35:24;17.60;96.90
32650;DHT22;19055;51.064;3.712;2022-08-21T03:37:50;17.60;97.10
32650;DHT22;19055;51.064;3.712;2022-08-21T03:40:17;17.60;97.20
32650;DHT22;19055;51.064;3.712;2022-08-21T03:42:44;17.60;97.40
32650;DHT22;19055;51.064;3.712;2022-08-21T03:45:14;17.60;97.60
32650;DHT22;19055;51.064;3.712;2022-08-21T03:48:10;17.60;97.70
32650;DHT22;19055;51.064;3.712;2022-08-21T03:50:40;17.60;97.80
32650;DHT22;19055;51.064;3.712;2022-08-21T03:53:10;17.50;98.00
32650;DHT22;19055;51.064;3.712;2022-08-21T03:55:36;17.60;98.20
32650;DHT22;19055;51.064;3.712;2022-08-21T03:58:02;17.50;98.30
32650;DHT22;19055;51.064;3.712;2022-08-21T04:00:28;17.50;98.50
32650;DHT22;19055;51.064;3.712;2022-08-21T04:02:54;17.50;98.50
32650;DHT22;19055;51.064;3.712;2022-08-21T04:05:20;17.50;98.70
32650;DHT22;19055;51.064;3.712;2022-08-21T04:07:58;17.50;98.90
32650;DHT22;19055;51.064;3.712;2022-08-21T04:10:26;17.50;99.00
32650;DHT22;19055;51.064;3.712;2022-08-21T04:12:52;17.40;99.20
32650;DHT22;19055;51.064;3.712;2022-08-21T04:15:19;17.40;99.40
32650;DHT22;19055;51.064;3.712;2022-08-21T04:17:46;17.40;99.40
32650;DHT22;19055;51.064;3.712;2022-08-21T04:20:11;17.40;99.60
32650;DHT22;19055;51.064;3.712;2022-08-21T04:22:38;17.40;99.80
32650;DHT22;19055;51.064;3.712;2022-08-21T04:25:05;17.40;99.90
32650;DHT22;19055;51.064;3.712;2022-08-21T04:27:30;17.40;99.90
32650;DHT22;19055;51.064;3.712;2022-08-21T04:29:56;17.30;99.90
32650;DHT22;19055;51.064;3.712;2022-08-21T04:32:23;17.30;99.90
32650;DHT22;19055;51.064;3.712;2022-08-21T04:34:58;17.30;99.90
32650;DHT22;19055;51.064;3.712;2022-08-21T04:37:23;17.30;99.90
32650;DHT22;19055;51.064;3.712;2022-08-21T04:39:51;17.30;99.90
32650;DHT22;19055;51.064;3.712;2022-08-21T04:42:16;17.30;99.90
32650;DHT22;19055;51.064;3.712;2022-08-21T04:44:42;17.30;99.90
32650;DHT22;19055;51.064;3.712;2022-08-21T04:47:08;17.30;99.90
32650;DHT22;19055;51.064;3.712;2022-08-21T04:49:34;17.30;99.90
32650;DHT22;19055;51.064;3.712;2022-08-21T04:52:01;17.30;99.90
32650;DHT22;19055;51.064;3.712;2022-08-21T04:54:27;17.20;99.90
32650;DHT22;19055;51.064;3.712;2022-08-21T04:56:58;17.20;99.90
32650;DHT22;19055;51.064;3.712;2022-08-21T04:59:29;17.20;99.90
32650;DHT22;19055;51.064;3.712;2022-08-21T05:01:56;17.20;99.90
32650;DHT22;19055;51.064;3.712;2022-08-21T05:04:26;17.30;99.90
32650;DHT22;19055;51.064;3.712;2022-08-21T05:06:54;17.30;99.90
32650;DHT22;19055;51.064;3.712;2022-08-21T05:09:23;17.30;99.90
32650;DHT22;19055;51.064;3.712;2022-08-21T05:11:49;17.30;99.90
32650;DHT22;19055;51.064;3.712;2022-08-21T05:14:17;17.30;99.90
32650;DHT22;19055;51.064;3.712;2022-08-21T05:16:43;17.30;99.90
32650;DHT22;19055;51.064;3.712;2022-08-21T05:19:09;17.30;99.90
32650;DHT22;19055;51.064;3.712;2022-08-21T05:21:38;17.40;99.90
32650;DHT22;19055;51.064;3.712;2022-08-21T05:24:04;17.40;99.90
32650;DHT22;19055;51.064;3.712;2022-08-21T05:26:31;17.40;99.90
32650;DHT22;19055;51.064;3.712;2022-08-21T05:28:57;17.40;99.90
32650;DHT22;19055;51.064;3.712;2022-08-21T05:31:22;17.50;99.90
32650;DHT22;19055;51.064;3.712;2022-08-21T05:33:48;17.50;99.90
32650;DHT22;19055;51.064;3.712;2022-08-21T05:36:14;17.60;99.90
32650;DHT22;19055;51.064;3.712;2022-08-21T05:38:40;17.60;99.90
32650;DHT22;19055;51.064;3.712;2022-08-21T05:41:06;17.70;99.90
32650;DHT22;19055;51.064;3.712;2022-08-21T05:43:33;17.70;99.90
32650;DHT22;19055;51.064;3.712;2022-08-21T05:46:05;17.70;99.90
32650;DHT22;19055;51.064;3.712;2022-08-21T05:48:32;17.70;99.90
32650;DHT22;19055;51.064;3.712;2022-08-21T05:51:05;17.80;99.90
32650;DHT22;19055;51.064;3.712;2022-08-21T05:53:31;17.80;99.90
32650;DHT22;19055;51.064;3.712;2022-08-21T05:55:57;17.90;99.90
32650;DHT22;19055;51.064;3.712;2022-08-21T05:58:23;18.00;99.90
32650;DHT22;19055;51.064;3.712;2022-08-21T06:00:50;18.00;99.90
32650;DHT22;19055;51.064;3.712;2022-08-21T06:03:20;18.10;99.90
32650;DHT22;19055;51.064;3.712;2022-08-21T06:05:46;18.10;99.90
32650;DHT22;19055;51.064;3.712;2022-08-21T06:08:12;18.20;99.90
32650;DHT22;19055;51.064;3.712;2022-08-21T06:10:38;18.20;99.90
32650;DHT22;19055;51.064;3.712;2022-08-21T06:13:04;18.30;99.90
32650;DHT22;19055;51.064;3.712;2022-08-21T06:15:30;18.30;99.90
32650;DHT22;19055;51.064;3.712;2022-08-21T06:17:56;18.40;99.90
32650;DHT22;19055;51.064;3.712;2022-08-21T06:20:22;18.50;99.90
32650;DHT22;19055;51.064;3.712;2022-08-21T06:22:48;18.50;99.90
32650;DHT22;19055;51.064;3.712;2022-08-21T06:25:14;18.70;99.90
32650;DHT22;19055;51.064;3.712;2022-08-21T06:27:40;18.70;99.90
32650;DHT22;19055;51.064;3.712;2022-08-21T06:30:06;18.80;99.90
32650;DHT22;19055;51.064;3.712;2022-08-21T06:32:32;18.90;99.90
32650;DHT22;19055;51.064;3.712;2022-08-21T06:34:58;18.90;99.90
32650;DHT22;19055;51.064;3.712;2022-08-21T06:37:24;18.90;99.90
32650;DHT22;19055;51.064;3.712;2022-08-21T06:39:50;19.00;99.90
32650;DHT22;19055;51.064;3.712;2022-08-21T06:42:17;19.10;99.90
32650;DHT22;19055;51.064;3.712;2022-08-21T06:44:43;19.20;99.90
32650;DHT22;19055;51.064;3.712;2022-08-21T06:47:10;19.30;99.90
32650;DHT22;19055;51.064;3.712;2022-08-21T06:49:36;19.40;99.90
32650;DHT22;19055;51.064;3.712;2022-08-21T06:52:02;19.50;99.90
32650;DHT22;19055;51.064;3.712;2022-08-21T06:54:28;19.70;99.90
32650;DHT22;19055;51.064;3.712;2022-08-21T06:56:54;19.80;99.90
32650;DHT22;19055;51.064;3.712;2022-08-21T06:59:20;19.90;99.90
32650;DHT22;19055;51.064;3.712;2022-08-21T07:01:46;20.10;99.70
32650;DHT22;19055;51.064;3.712;2022-08-21T07:04:11;20.30;99.30
32650;DHT22;19055;51.064;3.712;2022-08-21T07:06:37;20.60;98.70
32650;DHT22;19055;51.064;3.712;2022-08-21T07:09:03;20.90;98.10
32650;DHT22;19055;51.064;3.712;2022-08-21T07:11:29;21.10;97.80
32650;DHT22;19055;51.064;3.712;2022-08-21T07:13:55;21.40;97.10
32650;DHT22;19055;51.064;3.712;2022-08-21T07:16:22;21.80;96.20
32650;DHT22;19055;51.064;3.712;2022-08-21T07:18:48;22.40;95.10
32650;DHT22;19055;51.064;3.712;2022-08-21T07:21:15;22.90;93.70
32650;DHT22;19055;51.064;3.712;2022-08-21T07:23:44;23.50;92.70
32650;DHT22;19055;51.064;3.712;2022-08-21T07:26:17;24.00;90.70
32650;DHT22;19055;51.064;3.712;2022-08-21T07:28:43;24.70;88.70
32650;DHT22;19055;51.064;3.712;2022-08-21T07:31:10;25.50;84.30
32650;DHT22;19055;51.064;3.712;2022-08-21T07:33:39;26.60;78.10
32650;DHT22;19055;51.064;3.712;2022-08-21T07:36:06;27.40;72.90
32650;DHT22;19055;51.064;3.712;2022-08-21T07:38:32;27.70;69.60
32650;DHT22;19055;51.064;3.712;2022-08-21T07:40:59;28.20;67.30
32650;DHT22;19055;51.064;3.712;2022-08-21T07:43:26;28.90;64.20
32650;DHT22;19055;51.064;3.712;2022-08-21T07:45:52;29.20;60.10
32650;DHT22;19055;51.064;3.712;2022-08-21T07:48:20;29.80;58.80
32650;DHT22;19055;51.064;3.712;2022-08-21T07:50:46;30.70;56.40
32650;DHT22;19055;51.064;3.712;2022-08-21T07:53:12;31.90;53.00
32650;DHT22;19055;51.064;3.712;2022-08-21T07:55:38;33.00;50.00
32650;DHT22;19055;51.064;3.712;2022-08-21T07:58:04;33.60;47.10
32650;DHT22;19055;51.064;3.712;2022-08-21T08:00:29;33.80;45.90
32650;DHT22;19055;51.064;3.712;2022-08-21T08:02:56;34.30;45.20
32650;DHT22;19055;51.064;3.712;2022-08-21T08:05:26;34.80;43.60
32650;DHT22;19055;51.064;3.712;2022-08-21T08:07:52;34.70;43.50
32650;DHT22;19055;51.064;3.712;2022-08-21T08:10:18;34.50;43.10
32650;DHT22;19055;51.064;3.712;2022-08-21T08:12:45;34.60;42.90
32650;DHT22;19055;51.064;3.712;2022-08-21T08:15:15;34.90;42.20
32650;DHT22;19055;51.064;3.712;2022-08-21T08:17:41;34.80;42.20
32650;DHT22;19055;51.064;3.712;2022-08-21T08:20:08;34.40;43.00
32650;DHT22;19055;51.064;3.712;2022-08-21T08:22:35;34.80;42.50
32650;DHT22;19055;51.064;3.712;2022-08-21T08:25:01;35.30;41.90
32650;DHT22;19055;51.064;3.712;2022-08-21T08:27:27;36.10;40.50
32650;DHT22;19055;51.064;3.712;2022-08-21T08:29:53;37.00;38.40
32650;DHT22;19055;51.064;3.712;2022-08-21T08:32:19;37.60;37.90
32650;DHT22;19055;51.064;3.712;2022-08-21T08:34:45;38.10;36.70
32650;DHT22;19055;51.064;3.712;2022-08-21T08:37:12;38.00;36.40
32650;DHT22;19055;51.064;3.712;2022-08-21T08:39:38;37.60;36.70
32650;DHT22;19055;51.064;3.712;2022-08-21T08:42:24;37.40;36.90
32650;DHT22;19055;51.064;3.712;2022-08-21T08:44:59;37.70;36.50
32650;DHT22;19055;51.064;3.712;2022-08-21T08:47:27;38.10;35.70
32650;DHT22;19055;51.064;3.712;2022-08-21T08:50:11;38.30;35.80
32650;DHT22;19055;51.064;3.712;2022-08-21T08:52:54;38.90;34.70
32650;DHT22;19055;51.064;3.712;2022-08-21T08:55:44;39.40;33.90
32650;DHT22;19055;51.064;3.712;2022-08-21T08:58:27;39.80;33.70
32650;DHT22;19055;51.064;3.712;2022-08-21T09:00:56;40.30;32.30
32650;DHT22;19055;51.064;3.712;2022-08-21T09:03:23;39.20;33.70
32650;DHT22;19055;51.064;3.712;2022-08-21T09:12:45;34.10;40.20
32650;DHT22;19055;51.064;3.712;2022-08-21T09:15:25;33.30;41.50
32650;DHT22;19055;51.064;3.712;2022-08-21T09:18:51;33.00;42.90
32650;DHT22;19055;51.064;3.712;2022-08-21T09:21:14;33.10;42.50
32650;DHT22;19055;51.064;3.712;2022-08-21T09:26:54;33.50;42.20
32650;DHT22;19055;51.064;3.712;2022-08-21T09:29:24;33.70;42.00
32650;DHT22;19055;51.064;3.712;2022-08-21T09:31:54;34.70;40.30
32650;DHT22;19055;51.064;3.712;2022-08-21T09:34:28;35.50;38.90
32650;DHT22;19055;51.064;3.712;2022-08-21T09:36:56;36.40;37.00
32650;DHT22;19055;51.064;3.712;2022-08-21T09:39:28;36.80;36.50
32650;DHT22;19055;51.064;3.712;2022-08-21T09:42:00;37.30;35.70
32650;DHT22;19055;51.064;3.712;2022-08-21T09:44:35;37.20;35.40
32650;DHT22;19055;51.064;3.712;2022-08-21T09:47:06;37.00;36.10
32650;DHT22;19055;51.064;3.712;2022-08-21T09:49:38;37.20;35.40
32650;DHT22;19055;51.064;3.712;2022-08-21T09:52:06;36.70;36.00
32650;DHT22;19055;51.064;3.712;2022-08-21T09:54:39;35.80;37.10
32650;DHT22;19055;51.064;3.712;2022-08-21T09:59:53;35.20;38.70
32650;DHT22;19055;51.064;3.712;2022-08-21T10:02:31;36.40;36.60
32650;DHT22;19055;51.064;3.712;2022-08-21T10:05:02;37.10;35.20
32650;DHT22;19055;51.064;3.712;2022-08-21T10:07:31;37.50;34.90
32650;DHT22;19055;51.064;3.712;2022-08-21T10:10:24;38.10;33.70
32650;DHT22;19055;51.064;3.712;2022-08-21T10:18:43;36.60;34.70
32650;DHT22;19055;51.064;3.712;2022-08-21T10:29:47;35.60;36.80
32650;DHT22;19055;51.064;3.712;2022-08-21T10:32:22;35.50;36.80
32650;DHT22;19055;51.064;3.712;2022-08-21T10:37:52;34.80;38.40
32650;DHT22;19055;51.064;3.712;2022-08-21T10:40:45;35.40;37.40
32650;DHT22;19055;51.064;3.712;2022-08-21T10:48:46;35.40;36.30
32650;DHT22;19055;51.064;3.712;2022-08-21T10:56:40;34.60;37.40
32650;DHT22;19055;51.064;3.712;2022-08-21T11:02:03;34.80;37.60
32650;DHT22;19055;51.064;3.712;2022-08-21T11:04:47;35.10;36.90
32650;DHT22;19055;51.064;3.712;2022-08-21T11:07:26;35.00;36.40
32650;DHT22;19055;51.064;3.712;2022-08-21T11:09:57;34.80;36.00
32650;DHT22;19055;51.064;3.712;2022-08-21T11:12:34;34.00;37.10
32650;DHT22;19055;51.064;3.712;2022-08-21T11:17:47;33.70;37.90
32650;DHT22;19055;51.064;3.712;2022-08-21T11:21:03;33.40;38.30
32650;DHT22;19055;51.064;3.712;2022-08-21T11:23:43;33.40;38.30
32650;DHT22;19055;51.064;3.712;2022-08-21T11:26:19;33.30;38.50
32650;DHT22;19055;51.064;3.712;2022-08-21T11:28:52;33.50;39.10
32650;DHT22;19055;51.064;3.712;2022-08-21T11:31:33;33.80;37.80
32650;DHT22;19055;51.064;3.712;2022-08-21T11:34:21;34.00;37.50
32650;DHT22;19055;51.064;3.712;2022-08-21T11:37:16;33.50;38.20
32650;DHT22;19055;51.064;3.712;2022-08-21T11:42:41;32.80;39.30
32650;DHT22;19055;51.064;3.712;2022-08-21T11:45:14;32.60;40.40
32650;DHT22;19055;51.064;3.712;2022-08-21T11:48:03;32.50;40.50
32650;DHT22;19055;51.064;3.712;2022-08-21T11:50:35;32.40;41.10
32650;DHT22;19055;51.064;3.712;2022-08-21T11:53:28;32.30;41.90
32650;DHT22;19055;51.064;3.712;2022-08-21T11:56:19;32.90;39.90
32650;DHT22;19055;51.064;3.712;2022-08-21T11:58:51;33.70;39.10
32650;DHT22;19055;51.064;3.712;2022-08-21T12:01:20;33.70;38.10
32650;DHT22;19055;51.064;3.712;2022-08-21T12:04:43;33.20;39.20
32650;DHT22;19055;51.064;3.712;2022-08-21T12:06:54;32.20;40.90
32650;DHT22;19055;51.064;3.712;2022-08-21T12:12:32;31.70;42.00
32650;DHT22;19055;51.064;3.712;2022-08-21T12:17:52;31.00;43.10
32650;DHT22;19055;51.064;3.712;2022-08-21T12:23:24;30.20;44.50
32650;DHT22;19055;51.064;3.712;2022-08-21T12:26:24;29.90;45.40
32650;DHT22;19055;51.064;3.712;2022-08-21T12:29:24;29.80;45.70
32650;DHT22;19055;51.064;3.712;2022-08-21T12:39:52;30.00;45.30
32650;DHT22;19055;51.064;3.712;2022-08-21T12:42:39;30.30;44.40
32650;DHT22;19055;51.064;3.712;2022-08-21T12:46:00;30.60;44.10
32650;DHT22;19055;51.064;3.712;2022-08-21T12:48:06;30.60;43.90
32650;DHT22;19055;51.064;3.712;2022-08-21T12:50:44;30.10;44.90
32650;DHT22;19055;51.064;3.712;2022-08-21T12:55:45;29.80;45.60
32650;DHT22;19055;51.064;3.712;2022-08-21T12:58:19;29.80;45.80
32650;DHT22;19055;51.064;3.712;2022-08-21T13:00:51;29.50;46.00
32650;DHT22;19055;51.064;3.712;2022-08-21T13:03:18;29.40;46.10
32650;DHT22;19055;51.064;3.712;2022-08-21T13:05:43;29.40;45.90
32650;DHT22;19055;51.064;3.712;2022-08-21T13:08:11;29.50;45.80
32650;DHT22;19055;51.064;3.712;2022-08-21T13:10:40;29.40;46.20
32650;DHT22;19055;51.064;3.712;2022-08-21T13:13:16;29.40;46.00
32650;DHT22;19055;51.064;3.712;2022-08-21T13:15:43;29.50;46.00
32650;DHT22;19055;51.064;3.712;2022-08-21T13:18:21;29.50;46.10
32650;DHT22;19055;51.064;3.712;2022-08-21T13:20:48;29.50;46.30
32650;DHT22;19055;51.064;3.712;2022-08-21T13:23:25;29.70;46.10
32650;DHT22;19055;51.064;3.712;2022-08-21T13:25:52;29.90;45.50
32650;DHT22;19055;51.064;3.712;2022-08-21T13:28:18;29.50;45.80
32650;DHT22;19055;51.064;3.712;2022-08-21T13:30:53;29.40;46.30
32650;DHT22;19055;51.064;3.712;2022-08-21T13:33:22;29.20;46.90
32650;DHT22;19055;51.064;3.712;2022-08-21T13:36:31;29.00;47.40
32650;DHT22;19055;51.064;3.712;2022-08-21T13:38:58;28.90;47.60
32650;DHT22;19055;51.064;3.712;2022-08-21T13:41:31;29.00;47.30
32650;DHT22;19055;51.064;3.712;2022-08-21T13:44:03;29.10;47.20
32650;DHT22;19055;51.064;3.712;2022-08-21T13:46:32;29.10;47.20
32650;DHT22;19055;51.064;3.712;2022-08-21T13:49:03;28.60;47.80
32650;DHT22;19055;51.064;3.712;2022-08-21T13:51:31;28.40;48.70
32650;DHT22;19055;51.064;3.712;2022-08-21T13:53:58;28.10;49.00
32650;DHT22;19055;51.064;3.712;2022-08-21T13:58:52;28.00;49.90
32650;DHT22;19055;51.064;3.712;2022-08-21T14:01:31;28.00;49.80
32650;DHT22;19055;51.064;3.712;2022-08-21T14:04:04;28.00;49.50
32650;DHT22;19055;51.064;3.712;2022-08-21T14:06:36;28.10;50.00
32650;DHT22;19055;51.064;3.712;2022-08-21T14:09:26;28.10;49.90
32650;DHT22;19055;51.064;3.712;2022-08-21T14:11:56;28.20;50.00
32650;DHT22;19055;51.064;3.712;2022-08-21T14:14:25;28.30;49.70
32650;DHT22;19055;51.064;3.712;2022-08-21T14:16:57;28.20;49.70
32650;DHT22;19055;51.064;3.712;2022-08-21T14:19:27;28.30;49.30
32650;DHT22;19055;51.064;3.712;2022-08-21T14:21:53;28.50;49.30
32650;DHT22;19055;51.064;3.712;2022-08-21T14:29:21;28.40;49.40
32650;DHT22;19055;51.064;3.712;2022-08-21T14:31:53;28.50;49.30
32650;DHT22;19055;51.064;3.712;2022-08-21T14:34:24;28.70;49.50
32650;DHT22;19055;51.064;3.712;2022-08-21T14:36:51;28.50;49.30
32650;DHT22;19055;51.064;3.712;2022-08-21T14:39:17;28.60;49.20
32650;DHT22;19055;51.064;3.712;2022-08-21T14:41:43;28.60;48.70
32650;DHT22;19055;51.064;3.712;2022-08-21T14:44:11;28.70;49.00
32650;DHT22;19055;51.064;3.712;2022-08-21T14:46:37;28.80;48.80
32650;DHT22;19055;51.064;3.712;2022-08-21T14:49:04;29.00;48.50
32650;DHT22;19055;51.064;3.712;2022-08-21T14:51:30;29.00;48.00
32650;DHT22;19055;51.064;3.712;2022-08-21T14:53:56;29.00;48.10
32650;DHT22;19055;51.064;3.712;2022-08-21T14:56:28;28.90;48.30
32650;DHT22;19055;51.064;3.712;2022-08-21T14:58:55;28.90;48.60
32650;DHT22;19055;51.064;3.712;2022-08-21T15:01:23;28.80;48.60
32650;DHT22;19055;51.064;3.712;2022-08-21T15:03:49;28.60;49.00
32650;DHT22;19055;51.064;3.712;2022-08-21T15:06:17;28.40;49.50
32650;DHT22;19055;51.064;3.712;2022-08-21T15:08:43;28.30;50.00
32650;DHT22;19055;51.064;3.712;2022-08-21T15:11:14;28.20;50.10
32650;DHT22;19055;51.064;3.712;2022-08-21T15:13:41;28.30;49.90
32650;DHT22;19055;51.064;3.712;2022-08-21T15:16:09;28.20;50.10
32650;DHT22;19055;51.064;3.712;2022-08-21T15:18:36;28.10;50.30
32650;DHT22;19055;51.064;3.712;2022-08-21T15:21:03;28.10;50.50
32650;DHT22;19055;51.064;3.712;2022-08-21T15:23:29;28.20;50.40
32650;DHT22;19055;51.064;3.712;2022-08-21T15:25:55;28.00;51.00
32650;DHT22;19055;51.064;3.712;2022-08-21T15:28:23;27.90;51.80
32650;DHT22;19055;51.064;3.712;2022-08-21T15:30:49;27.90;51.70
32650;DHT22;19055;51.064;3.712;2022-08-21T15:33:16;28.00;51.50
32650;DHT22;19055;51.064;3.712;2022-08-21T15:35:41;28.00;50.80
32650;DHT22;19055;51.064;3.712;2022-08-21T15:38:07;28.10;50.70
32650;DHT22;19055;51.064;3.712;2022-08-21T15:40:34;28.10;50.90
32650;DHT22;19055;51.064;3.712;2022-08-21T15:43:03;28.20;50.30
32650;DHT22;19055;51.064;3.712;2022-08-21T15:45:30;28.50;49.00
32650;DHT22;19055;51.064;3.712;2022-08-21T15:47:56;28.60;49.40
32650;DHT22;19055;51.064;3.712;2022-08-21T15:50:23;28.40;49.80
32650;DHT22;19055;51.064;3.712;2022-08-21T15:52:50;28.30;49.70
32650;DHT22;19055;51.064;3.712;2022-08-21T15:55:15;28.30;50.00
32650;DHT22;19055;51.064;3.712;2022-08-21T15:57:48;28.20;50.40
32650;DHT22;19055;51.064;3.712;2022-08-21T16:00:17;28.10;50.20
32650;DHT22;19055;51.064;3.712;2022-08-21T16:02:46;28.10;50.20
32650;DHT22;19055;51.064;3.712;2022-08-21T16:05:13;27.90;50.20
32650;DHT22;19055;51.064;3.712;2022-08-21T16:07:42;27.90;50.00
32650;DHT22;19055;51.064;3.712;2022-08-21T16:10:09;27.90;49.90
32650;DHT22;19055;51.064;3.712;2022-08-21T16:12:38;28.00;49.90
32650;DHT22;19055;51.064;3.712;2022-08-21T16:15:08;28.00;49.90
32650;DHT22;19055;51.064;3.712;2022-08-21T16:17:37;28.00;49.70
32650;DHT22;19055;51.064;3.712;2022-08-21T16:20:08;28.00;49.60
32650;DHT22;19055;51.064;3.712;2022-08-21T16:22:34;27.90;49.60
32650;DHT22;19055;51.064;3.712;2022-08-21T16:25:00;27.90;49.60
32650;DHT22;19055;51.064;3.712;2022-08-21T16:27:26;27.90;49.90
32650;DHT22;19055;51.064;3.712;2022-08-21T16:29:52;27.70;50.80
32650;DHT22;19055;51.064;3.712;2022-08-21T16:32:18;27.40;51.60
32650;DHT22;19055;51.064;3.712;2022-08-21T16:34:46;27.20;52.00
32650;DHT22;19055;51.064;3.712;2022-08-21T16:37:16;27.20;51.80
32650;DHT22;19055;51.064;3.712;2022-08-21T16:39:42;27.10;51.80
32650;DHT22;19055;51.064;3.712;2022-08-21T16:42:11;27.00;52.00
32650;DHT22;19055;51.064;3.712;2022-08-21T16:44:38;27.00;51.70
32650;DHT22;19055;51.064;3.712;2022-08-21T16:47:04;26.90;52.20
32650;DHT22;19055;51.064;3.712;2022-08-21T16:49:30;26.80;52.50
32650;DHT22;19055;51.064;3.712;2022-08-21T16:51:56;26.70;52.90
32650;DHT22;19055;51.064;3.712;2022-08-21T16:54:22;26.60;52.80
32650;DHT22;19055;51.064;3.712;2022-08-21T16:56:49;26.50;53.20
32650;DHT22;19055;51.064;3.712;2022-08-21T16:59:15;26.50;54.40
32650;DHT22;19055;51.064;3.712;2022-08-21T17:01:40;26.40;54.50